createdAt,value
2023-03-08T00:01:26.411Z,91.40
2023-03-08T00:03:55.779Z,91.50
2023-03-08T00:06:25.502Z,91.60
2023-03-08T00:08:57.361Z,91.90
2023-03-08T00:11:26.117Z,91.50
2023-03-08T00:13:56.148Z,91.50
2023-03-08T00:16:25.369Z,91.40
2023-03-08T00:18:53.721Z,91.40
2023-03-08T00:21:22.462Z,91.30
2023-03-08T00:23:53.903Z,91.50
2023-03-08T00:26:22.387Z,91.40
2023-03-08T00:28:50.766Z,91.40
2023-03-08T00:31:20.534Z,91.30
2023-03-08T00:33:53.708Z,91.40
2023-03-08T00:36:22.121Z,91.50
2023-03-08T00:38:51.255Z,91.40
2023-03-08T00:41:19.977Z,91.40
2023-03-08T00:43:48.316Z,91.50
2023-03-08T00:46:17.316Z,91.20
2023-03-08T00:48:48.245Z,91.20
2023-03-08T00:51:19.065Z,91.00
2023-03-08T00:53:49.236Z,91.30
2023-03-08T00:56:17.648Z,91.30
2023-03-08T00:58:46.944Z,91.10
2023-03-08T01:01:18.077Z,91.10
2023-03-08T01:03:50.188Z,91.20
2023-03-08T01:06:18.839Z,91.10
2023-03-08T01:08:47.311Z,91.20
2023-03-08T01:11:19.227Z,91.30
2023-03-08T01:13:48.422Z,91.20
2023-03-08T01:16:19.076Z,91.40
2023-03-08T01:18:47.521Z,91.40
2023-03-08T01:21:17.648Z,91.00
2023-03-08T01:23:46.060Z,91.10
2023-03-08T01:26:16.401Z,91.10
2023-03-08T01:28:45.182Z,91.30
2023-03-08T01:31:17.195Z,91.40
2023-03-08T01:33:46.430Z,91.50
2023-03-08T01:36:19.664Z,91.40
2023-03-08T01:38:48.779Z,91.50
2023-03-08T01:41:20.792Z,91.50
2023-03-08T01:43:49.628Z,91.50
2023-03-08T01:46:26.179Z,91.60
2023-03-08T01:49:06.542Z,91.50
2023-03-08T01:51:44.406Z,91.50
2023-03-08T01:54:17.681Z,91.40
2023-03-08T01:56:48.771Z,91.40
2023-03-08T01:59:17.631Z,91.40
2023-03-08T02:01:46.918Z,91.60
2023-03-08T02:04:15.390Z,91.30
2023-03-08T02:06:46.931Z,91.20
2023-03-08T02:09:20.746Z,91.10
2023-03-08T02:11:50.307Z,91.30
2023-03-08T02:14:18.640Z,91.50
2023-03-08T02:16:50.641Z,91.10
2023-03-08T02:19:26.351Z,91.20
2023-03-08T02:21:56.096Z,91.20
2023-03-08T02:24:26.956Z,91.30
2023-03-08T02:27:03.047Z,91.40
2023-03-08T02:29:31.381Z,91.30
2023-03-08T02:31:59.724Z,91.20
2023-03-08T02:34:28.108Z,91.10
2023-03-08T02:36:56.456Z,91.10
2023-03-08T02:39:26.156Z,91.10
2023-03-08T02:41:57.046Z,91.20
2023-03-08T02:44:25.460Z,91.30
2023-03-08T02:46:55.058Z,91.20
2023-03-08T02:49:23.611Z,91.70
2023-03-08T02:51:53.496Z,91.20
2023-03-08T02:54:22.812Z,91.40
2023-03-08T02:56:52.535Z,91.10
2023-03-08T02:59:22.774Z,91.20
2023-03-08T03:01:52.580Z,91.30
2023-03-08T03:04:20.927Z,91.20
2023-03-08T03:06:49.339Z,91.60
2023-03-08T03:09:18.196Z,91.10
2023-03-08T03:11:46.802Z,91.30
2023-03-08T03:14:16.552Z,91.50
2023-03-08T03:16:46.685Z,91.10
2023-03-08T03:19:15.311Z,91.70
2023-03-08T03:21:43.697Z,91.30
2023-03-08T03:24:12.125Z,91.20
2023-03-08T03:26:46.545Z,91.30
2023-03-08T03:29:16.301Z,91.30
2023-03-08T03:31:46.587Z,91.30
2023-03-08T03:34:15.935Z,91.20
2023-03-08T03:36:45.825Z,91.20
2023-03-08T03:39:14.355Z,90.90
2023-03-08T03:41:43.846Z,91.10
2023-03-08T03:44:16.497Z,91.40
2023-03-08T03:46:47.549Z,91.40
2023-03-08T03:49:19.325Z,91.30
2023-03-08T03:51:49.123Z,91.30
2023-03-08T03:54:25.585Z,91.40
2023-03-08T03:56:58.199Z,91.00
2023-03-08T03:59:30.682Z,91.00
2023-03-08T04:01:59.109Z,91.10
2023-03-08T04:04:35.494Z,91.10
2023-03-08T04:07:04.672Z,91.60
2023-03-08T04:09:38.517Z,91.00
2023-03-08T04:12:18.140Z,91.40
2023-03-08T04:14:47.944Z,91.30
2023-03-08T04:17:17.685Z,91.00
2023-03-08T04:19:50.872Z,91.10
2023-03-08T04:22:20.714Z,91.30
2023-03-08T04:24:54.038Z,91.00
2023-03-08T04:27:28.715Z,91.30
2023-03-08T04:29:58.473Z,91.60
2023-03-08T04:32:27.710Z,91.40
2023-03-08T04:34:59.184Z,91.40
2023-03-08T04:37:30.630Z,91.50
2023-03-08T04:40:09.452Z,91.60
2023-03-08T04:42:44.145Z,91.60
2023-03-08T04:45:16.873Z,91.80
2023-03-08T04:47:46.048Z,91.70
2023-03-08T04:50:15.529Z,91.70
2023-03-08T04:52:44.190Z,91.60
2023-03-08T04:55:13.524Z,91.70
2023-03-08T04:57:41.984Z,91.60
2023-03-08T05:00:12.962Z,91.60
2023-03-08T05:02:44.723Z,91.60
2023-03-08T05:05:17.990Z,91.40
2023-03-08T05:07:46.987Z,91.50
2023-03-08T05:10:15.364Z,91.40
2023-03-08T05:12:43.827Z,91.40
2023-03-08T05:15:13.055Z,91.40
2023-03-08T05:17:41.401Z,91.40
2023-03-08T05:20:12.880Z,91.40
2023-03-08T05:22:57.630Z,91.50
2023-03-08T05:25:32.239Z,91.50
2023-03-08T05:28:02.039Z,91.50
2023-03-08T05:30:30.455Z,91.60
2023-03-08T05:32:59.163Z,91.50
2023-03-08T05:35:29.024Z,91.70
2023-03-08T05:37:58.042Z,91.70
2023-03-08T05:40:26.908Z,91.80
2023-03-08T05:42:56.185Z,91.90
2023-03-08T05:45:27.051Z,91.90
2023-03-08T05:47:57.268Z,91.90
2023-03-08T05:50:26.228Z,91.80
2023-03-08T05:52:56.711Z,91.80
2023-03-08T05:55:29.740Z,91.90
2023-03-08T05:57:59.618Z,91.60
2023-03-08T06:00:29.176Z,91.60
2023-03-08T06:03:03.877Z,91.60
2023-03-08T06:05:35.231Z,91.80
2023-03-08T06:08:05.535Z,91.70
2023-03-08T06:10:34.664Z,91.70
2023-03-08T06:13:03.590Z,91.80
2023-03-08T06:15:32.056Z,91.70
2023-03-08T06:18:00.370Z,91.80
2023-03-08T06:20:29.568Z,91.80
2023-03-08T06:22:58.213Z,91.90
2023-03-08T06:25:27.976Z,92.00
2023-03-08T06:27:56.683Z,92.00
2023-03-08T06:30:34.375Z,92.00
2023-03-08T06:33:05.084Z,92.10
2023-03-08T06:35:34.148Z,92.20
2023-03-08T06:38:04.254Z,92.20
2023-03-08T06:40:35.118Z,92.20
2023-03-08T06:43:03.610Z,92.30
2023-03-08T06:45:34.430Z,92.30
2023-03-08T06:48:03.320Z,92.20
2023-03-08T06:50:31.892Z,92.20
2023-03-08T06:53:00.578Z,92.20
2023-03-08T06:55:44.790Z,92.10
2023-03-08T06:58:13.293Z,92.20
2023-03-08T07:00:41.675Z,92.10
2023-03-08T07:03:10.997Z,92.20
2023-03-08T07:05:39.421Z,92.20
2023-03-08T07:08:07.925Z,92.10
2023-03-08T07:10:36.463Z,92.20
2023-03-08T07:13:06.131Z,92.20
2023-03-08T07:15:36.020Z,92.30
2023-03-08T07:18:04.975Z,92.20
2023-03-08T07:20:33.446Z,92.40
2023-03-08T07:23:02.015Z,92.40
2023-03-08T07:25:30.493Z,92.50
2023-03-08T07:28:00.472Z,92.40
2023-03-08T07:30:30.197Z,92.50
2023-03-08T07:32:58.631Z,92.60
2023-03-08T07:35:27.095Z,92.60
2023-03-08T07:37:55.533Z,92.70
2023-03-08T07:40:24.148Z,92.80
2023-03-08T07:42:52.443Z,92.90
2023-03-08T07:45:39.541Z,93.00
2023-03-08T07:48:08.298Z,93.10
2023-03-08T07:50:36.716Z,93.20
2023-03-08T07:53:05.472Z,93.30
2023-03-08T07:55:33.796Z,93.40
2023-03-08T07:58:02.134Z,93.40
2023-03-08T08:00:30.688Z,93.40
2023-03-08T08:03:00.398Z,93.60
2023-03-08T08:05:29.027Z,93.70
2023-03-08T08:07:57.374Z,93.80
2023-03-08T08:10:25.742Z,93.80
2023-03-08T08:12:54.035Z,94.00
2023-03-08T08:15:25.246Z,93.90
2023-03-08T08:17:54.306Z,93.90
2023-03-08T08:20:25.202Z,94.10
2023-03-08T08:22:53.700Z,94.00
2023-03-08T08:25:22.728Z,94.10
2023-03-08T08:27:51.860Z,94.30
2023-03-08T08:30:20.792Z,94.20
2023-03-08T08:32:49.301Z,94.30
2023-03-08T08:35:17.800Z,94.30
2023-03-08T08:37:47.464Z,94.40
2023-03-08T08:40:16.141Z,94.60
2023-03-08T08:42:44.485Z,94.50
2023-03-08T08:45:13.034Z,94.50
2023-03-08T08:47:41.391Z,95.00
2023-03-08T08:50:14.009Z,94.70
2023-03-08T08:52:42.516Z,94.80
2023-03-08T08:55:12.445Z,94.70
2023-03-08T08:57:40.751Z,94.90
2023-03-08T09:00:11.322Z,94.80
2023-03-08T09:02:39.698Z,94.90
2023-03-08T09:05:08.813Z,94.80
2023-03-08T09:07:39.225Z,95.00
2023-03-08T09:10:10.815Z,94.90
2023-03-08T09:12:41.308Z,95.20
2023-03-08T09:15:11.769Z,95.50
2023-03-08T09:17:40.318Z,95.10
2023-03-08T09:20:10.570Z,95.20
2023-03-08T09:22:39.491Z,95.20
2023-03-08T09:25:09.801Z,95.30
2023-03-08T09:27:38.538Z,95.20
2023-03-08T09:30:12.700Z,95.20
2023-03-08T09:32:41.196Z,95.50
2023-03-08T09:35:10.502Z,95.40
2023-03-08T09:37:39.265Z,95.50
2023-03-08T09:40:09.710Z,95.40
2023-03-08T09:42:38.928Z,95.60
2023-03-08T09:45:22.465Z,95.60
2023-03-08T09:48:00.063Z,96.00
2023-03-08T09:50:44.656Z,95.80
2023-03-08T09:53:24.413Z,96.00
2023-03-08T09:55:57.687Z,96.00
2023-03-08T09:58:36.076Z,96.00
2023-03-08T10:01:23.268Z,96.10
2023-03-08T10:04:23.773Z,96.20
2023-03-08T10:07:22.446Z,96.30
2023-03-08T10:10:05.086Z,96.10
2023-03-08T10:12:43.527Z,96.20
2023-03-08T10:15:18.807Z,96.20
2023-03-08T10:17:54.102Z,96.30
2023-03-08T10:20:27.152Z,96.20
2023-03-08T10:23:00.475Z,96.20
2023-03-08T10:25:31.691Z,96.50
2023-03-08T10:28:03.459Z,96.40
2023-03-08T10:30:38.176Z,96.50
2023-03-08T10:33:12.227Z,96.50
2023-03-08T10:35:56.736Z,96.60
2023-03-08T10:38:29.497Z,96.70
2023-03-08T10:41:03.891Z,96.60
2023-03-08T10:43:35.895Z,96.70
2023-03-08T10:46:07.541Z,96.70
2023-03-08T10:48:37.432Z,96.60
2023-03-08T10:51:14.863Z,96.50
2023-03-08T10:53:55.265Z,96.80
2023-03-08T10:56:29.206Z,97.10
2023-03-08T10:58:59.078Z,97.10
2023-03-08T11:01:30.294Z,97.00
2023-03-08T11:04:06.003Z,97.00
2023-03-08T11:06:36.292Z,97.40
2023-03-08T11:09:06.732Z,97.40
2023-03-08T11:11:43.520Z,97.50
2023-03-08T11:14:13.205Z,97.90
2023-03-08T11:17:00.427Z,97.70
2023-03-08T11:19:42.846Z,98.20
2023-03-08T11:22:37.895Z,98.10
2023-03-08T11:25:20.254Z,98.30
2023-03-08T11:28:04.753Z,98.20
2023-03-08T11:30:47.766Z,98.30
2023-03-08T11:33:40.005Z,98.30
2023-03-08T11:36:20.249Z,98.60
2023-03-08T11:38:56.462Z,98.50
2023-03-08T11:41:31.862Z,98.40
2023-03-08T11:44:35.703Z,98.40
2023-03-08T11:47:53.380Z,98.80
2023-03-08T11:50:24.860Z,98.80
2023-03-08T11:53:07.445Z,98.50
2023-03-08T11:55:50.692Z,98.90
2023-03-08T11:58:25.649Z,99.00
2023-03-08T12:01:00.850Z,98.90
2023-03-08T12:03:35.286Z,99.20
2023-03-08T12:06:22.841Z,98.90
2023-03-08T12:09:02.866Z,98.90
2023-03-08T12:11:35.793Z,98.80
2023-03-08T12:14:14.073Z,98.90
2023-03-08T12:16:49.646Z,99.10
2023-03-08T12:19:29.883Z,99.30
2023-03-08T12:22:15.484Z,99.30
2023-03-08T12:24:52.078Z,99.50
2023-03-08T12:27:29.697Z,99.50
2023-03-08T12:30:17.336Z,99.40
2023-03-08T12:32:47.355Z,99.60
2023-03-08T12:35:32.826Z,99.20
2023-03-08T12:38:03.506Z,99.70
2023-03-08T12:40:40.437Z,99.30
2023-03-08T12:43:12.765Z,99.60
2023-03-08T12:45:44.138Z,99.60
2023-03-08T12:48:26.731Z,99.40
2023-03-08T12:51:07.481Z,99.90
2023-03-08T12:53:40.833Z,99.90
2023-03-08T12:56:31.181Z,99.60
2023-03-08T12:59:01.723Z,99.90
2023-03-08T13:01:41.113Z,99.90
2023-03-08T13:04:44.721Z,99.90
2023-03-08T13:07:23.861Z,99.90
2023-03-08T13:09:59.559Z,99.90
2023-03-08T13:12:52.133Z,99.90
2023-03-08T13:15:25.328Z,99.90
2023-03-08T13:18:03.852Z,99.80
2023-03-08T13:21:01.213Z,99.90
2023-03-08T13:23:36.650Z,99.90
2023-03-08T13:26:50.449Z,99.90
2023-03-08T13:29:22.268Z,99.90
2023-03-08T13:31:52.503Z,99.70
2023-03-08T13:34:30.880Z,99.80
2023-03-08T13:37:00.132Z,99.90
2023-03-08T13:39:31.543Z,99.80
2023-03-08T13:42:12.104Z,99.80
2023-03-08T13:44:41.971Z,99.90
2023-03-08T13:47:24.257Z,99.90
2023-03-08T13:49:57.564Z,99.90
2023-03-08T13:52:30.060Z,99.90
2023-03-08T13:55:01.649Z,99.90
2023-03-08T13:57:33.573Z,99.90
2023-03-08T14:00:23.161Z,99.90
2023-03-08T14:02:51.669Z,99.90
2023-03-08T14:05:23.729Z,99.90
2023-03-08T14:08:00.941Z,99.90
2023-03-08T14:10:45.057Z,99.90
2023-03-08T14:13:19.600Z,99.90
2023-03-08T14:15:54.804Z,99.90
2023-03-08T14:18:25.152Z,99.90
2023-03-08T14:21:07.652Z,99.90
2023-03-08T14:23:41.180Z,99.90
2023-03-08T14:26:31.010Z,99.90
2023-03-08T14:29:22.153Z,99.90
2023-03-08T14:32:06.449Z,99.90
2023-03-08T14:34:39.301Z,99.90
2023-03-08T14:37:16.520Z,99.90
2023-03-08T14:39:47.209Z,99.90
2023-03-08T14:42:23.965Z,99.90
2023-03-08T14:44:55.148Z,99.90
2023-03-08T14:47:27.702Z,99.90
2023-03-08T14:49:58.687Z,99.90
2023-03-08T14:52:30.940Z,99.90
2023-03-08T14:54:59.368Z,99.90
2023-03-08T14:57:30.562Z,99.90
2023-03-08T15:00:14.043Z,99.90
2023-03-08T15:02:44.432Z,99.90
2023-03-08T15:05:28.110Z,99.90
2023-03-08T15:07:59.257Z,99.90
2023-03-08T15:10:30.914Z,99.90
2023-03-08T15:12:59.844Z,99.90
2023-03-08T15:15:28.408Z,99.90
2023-03-08T15:17:58.077Z,99.90
2023-03-08T15:20:26.413Z,99.90
2023-03-08T15:22:57.563Z,99.90
2023-03-08T15:25:28.020Z,99.90
2023-03-08T15:27:56.624Z,99.90
2023-03-08T15:30:27.937Z,99.90
2023-03-08T15:32:59.603Z,99.90
2023-03-08T15:35:28.256Z,99.90
2023-03-08T15:37:56.533Z,99.90
2023-03-08T15:40:28.221Z,99.90
2023-03-08T15:42:56.563Z,99.90
2023-03-08T15:45:25.851Z,99.90
2023-03-08T15:47:59.541Z,99.90
2023-03-08T15:50:29.416Z,99.90
2023-03-08T15:52:58.237Z,99.90
2023-03-08T15:55:29.157Z,99.90
2023-03-08T15:57:57.888Z,99.90
2023-03-08T16:00:27.719Z,99.90
2023-03-08T16:02:56.667Z,99.90
2023-03-08T16:05:28.473Z,99.90
2023-03-08T16:07:59.410Z,99.90
2023-03-08T16:10:29.751Z,99.90
2023-03-08T16:12:58.100Z,99.90
2023-03-08T16:15:26.574Z,99.90
2023-03-08T16:17:54.866Z,99.90
2023-03-08T16:20:23.534Z,99.90
2023-03-08T16:22:53.298Z,99.90
2023-03-08T16:25:23.102Z,99.90
2023-03-08T16:27:52.915Z,99.90
2023-03-08T16:30:23.895Z,99.90
2023-03-08T16:32:54.388Z,99.90
2023-03-08T16:35:22.788Z,99.90
2023-03-08T16:37:54.514Z,99.90
2023-03-08T16:40:23.191Z,99.90
2023-03-08T16:42:52.833Z,99.90
2023-03-08T16:45:21.319Z,99.90
2023-03-08T16:47:49.647Z,99.90
2023-03-08T16:50:18.671Z,99.90
2023-03-08T16:52:48.526Z,99.90
2023-03-08T16:55:20.276Z,99.90
2023-03-08T16:57:48.587Z,99.90
2023-03-08T17:00:18.141Z,99.90
2023-03-08T17:02:46.772Z,99.90
2023-03-08T17:05:15.167Z,99.90
2023-03-08T17:07:43.569Z,99.90
2023-03-08T17:10:13.154Z,99.90
2023-03-08T17:12:42.896Z,99.90
2023-03-08T17:15:15.704Z,99.90
2023-03-08T17:17:47.249Z,99.90
2023-03-08T17:20:15.612Z,99.90
2023-03-08T17:22:45.149Z,99.90
2023-03-08T17:25:13.479Z,99.90
2023-03-08T17:27:43.377Z,99.90
2023-03-08T17:30:15.652Z,99.90
2023-03-08T17:32:44.163Z,99.90
2023-03-08T17:35:15.952Z,99.90
2023-03-08T17:37:44.620Z,99.90
2023-03-08T17:40:14.803Z,99.90
2023-03-08T17:42:45.173Z,99.90
2023-03-08T17:45:14.407Z,99.90
2023-03-08T17:47:43.303Z,99.90
2023-03-08T17:50:14.129Z,99.90
2023-03-08T17:52:43.233Z,99.90
2023-03-08T17:55:12.368Z,99.90
2023-03-08T17:57:40.776Z,99.90
2023-03-08T18:00:13.036Z,99.90
2023-03-08T18:02:41.482Z,99.90
2023-03-08T18:05:11.444Z,99.90
2023-03-08T18:07:41.891Z,99.90
2023-03-08T18:10:13.148Z,99.90
2023-03-08T18:12:41.603Z,99.90
2023-03-08T18:15:13.302Z,99.90
2023-03-08T18:17:41.696Z,99.90
2023-03-08T18:20:12.445Z,99.90
2023-03-08T18:22:41.856Z,99.90
2023-03-08T18:25:11.241Z,99.90
2023-03-08T18:27:40.392Z,99.90
2023-03-08T18:30:14.276Z,99.90
2023-03-08T18:32:42.819Z,99.90
2023-03-08T18:35:13.415Z,99.90
2023-03-08T18:37:41.952Z,99.90
2023-03-08T18:40:12.646Z,99.90
2023-03-08T18:42:41.483Z,99.90
2023-03-08T18:45:13.095Z,99.90
2023-03-08T18:47:41.658Z,99.90
2023-03-08T18:50:15.636Z,99.90
2023-03-08T18:52:44.154Z,99.90
2023-03-08T18:55:13.277Z,99.90
2023-03-08T18:57:41.983Z,99.90
2023-03-08T19:00:15.369Z,99.90
2023-03-08T19:02:43.678Z,99.90
2023-03-08T19:05:12.976Z,99.90
2023-03-08T19:07:42.143Z,99.90
2023-03-08T19:10:14.806Z,99.90
2023-03-08T19:12:44.736Z,99.90
2023-03-08T19:15:14.652Z,99.90
2023-03-08T19:17:43.002Z,99.90
2023-03-08T19:20:13.405Z,99.90
2023-03-08T19:22:41.811Z,99.90
2023-03-08T19:25:11.228Z,99.90
2023-03-08T19:27:39.854Z,99.90
2023-03-08T19:30:10.671Z,99.90
2023-03-08T19:32:42.497Z,99.90
2023-03-08T19:35:11.648Z,99.90
2023-03-08T19:37:40.192Z,99.90
2023-03-08T19:40:10.888Z,99.90
2023-03-08T19:42:39.605Z,99.90
2023-03-08T19:45:10.046Z,99.90
2023-03-08T19:47:39.989Z,99.90
2023-03-08T19:50:13.174Z,99.90
2023-03-08T19:52:41.497Z,99.90
2023-03-08T19:55:10.737Z,99.90
2023-03-08T19:57:39.066Z,99.90
2023-03-08T20:00:10.211Z,99.90
2023-03-08T20:02:45.951Z,99.90
2023-03-08T20:05:14.431Z,99.90
2023-03-08T20:07:42.964Z,99.90
2023-03-08T20:10:17.673Z,99.90
2023-03-08T20:12:47.205Z,99.90
2023-03-08T20:15:17.367Z,99.90
2023-03-08T20:17:48.373Z,99.90
2023-03-08T20:20:17.348Z,99.90
2023-03-08T20:22:46.405Z,99.90
2023-03-08T20:25:20.031Z,99.90
2023-03-08T20:27:48.399Z,99.90
2023-03-08T20:30:17.152Z,99.90
2023-03-08T20:32:46.869Z,99.90
2023-03-08T20:35:15.768Z,99.90
2023-03-08T20:37:44.126Z,99.90
2023-03-08T20:40:16.612Z,99.90
2023-03-08T20:42:45.246Z,99.90
2023-03-08T20:45:14.231Z,99.90
2023-03-08T20:47:42.573Z,99.90
2023-03-08T20:50:13.277Z,99.90
2023-03-08T20:52:41.629Z,99.90
2023-03-08T20:55:10.643Z,99.90
2023-03-08T20:57:38.951Z,99.90
2023-03-08T21:00:09.647Z,99.90
2023-03-08T21:02:38.416Z,99.90
2023-03-08T21:05:08.112Z,99.90
2023-03-08T21:07:37.822Z,99.90
2023-03-08T21:10:07.214Z,99.90
2023-03-08T21:12:37.140Z,99.90
2023-03-08T21:15:08.039Z,99.90
2023-03-08T21:17:39.928Z,99.90
2023-03-08T21:20:10.861Z,99.90
2023-03-08T21:22:40.572Z,99.90
2023-03-08T21:25:10.305Z,99.90
2023-03-08T21:27:38.857Z,99.90
2023-03-08T21:30:09.090Z,99.90
2023-03-08T21:32:38.325Z,99.90
2023-03-08T21:35:07.729Z,99.90
2023-03-08T21:37:36.323Z,99.90
2023-03-08T21:40:07.915Z,99.90
2023-03-08T21:42:36.292Z,99.90
2023-03-08T21:45:05.445Z,99.90
2023-03-08T21:47:33.718Z,99.90
2023-03-08T21:50:02.054Z,99.90
2023-03-08T21:52:30.477Z,99.90
2023-03-08T21:54:58.876Z,99.90
2023-03-08T21:57:28.612Z,99.90
2023-03-08T21:59:56.922Z,99.90
2023-03-08T22:02:25.263Z,99.90
2023-03-08T22:04:53.583Z,99.90
2023-03-08T22:07:21.901Z,99.90
2023-03-08T22:09:50.257Z,99.90
2023-03-08T22:12:19.890Z,99.90
2023-03-08T22:14:49.621Z,99.90
2023-03-08T22:17:17.912Z,99.90
2023-03-08T22:19:46.247Z,99.90
2023-03-08T22:22:14.588Z,99.90
2023-03-08T22:24:42.932Z,99.90
2023-03-08T22:27:13.043Z,99.90
2023-03-08T22:29:41.671Z,99.90
2023-03-08T22:32:11.430Z,99.90
2023-03-08T22:34:39.795Z,99.90
2023-03-08T22:37:08.139Z,99.90
2023-03-08T22:39:36.459Z,99.90
2023-03-08T22:42:05.058Z,99.90
2023-03-08T22:44:33.641Z,99.90
2023-03-08T22:47:02.040Z,99.90
2023-03-08T22:49:31.700Z,99.90
2023-03-08T22:52:00.079Z,99.90
2023-03-08T22:54:28.799Z,99.90
2023-03-08T22:56:57.531Z,99.90
2023-03-08T22:59:26.440Z,99.90
2023-03-08T23:01:55.777Z,99.90
2023-03-08T23:04:24.214Z,99.90
2023-03-08T23:06:53.991Z,99.90
2023-03-08T23:09:23.271Z,99.90
2023-03-08T23:11:51.886Z,99.90
2023-03-08T23:14:20.218Z,99.90
2023-03-08T23:16:48.785Z,99.90
2023-03-08T23:19:20.492Z,99.90
2023-03-08T23:21:49.715Z,99.90
2023-03-08T23:24:20.407Z,99.90
2023-03-08T23:26:48.835Z,99.90
2023-03-08T23:29:17.529Z,99.90
2023-03-08T23:31:47.589Z,99.90
2023-03-08T23:34:16.104Z,99.90
2023-03-08T23:36:44.484Z,99.90
2023-03-08T23:39:13.030Z,99.90
2023-03-08T23:41:42.897Z,99.90
2023-03-08T23:44:12.559Z,99.90
2023-03-08T23:46:41.235Z,99.90
2023-03-08T23:49:11.210Z,99.90
2023-03-08T23:51:39.614Z,99.90
2023-03-08T23:54:07.976Z,99.90
2023-03-08T23:56:38.968Z,99.90
2023-03-08T23:59:13.073Z,99.90
